sensor_id;sensor_type;location;lat;lon;timestamp;P1;durP1;ratioP1;P2;durP2;ratioP2
75283;SDS011;63877;48.702;44.594;2022-10-20T00:00:45;3.08;;;2.08;;
75283;SDS011;63877;48.702;44.594;2022-10-20T00:03:29;7.63;;;2.42;;
75283;SDS011;63877;48.702;44.594;2022-10-20T00:06:04;4.35;;;2.45;;
75283;SDS011;63877;48.702;44.594;2022-10-20T00:09:09;4.85;;;2.70;;
75283;SDS011;63877;48.702;44.594;2022-10-20T00:11:54;4.53;;;2.40;;
75283;SDS011;63877;48.702;44.594;2022-10-20T00:14:20;3.33;;;1.40;;
75283;SDS011;63877;48.702;44.594;2022-10-20T00:17:23;7.28;;;2.65;;
75283;SDS011;63877;48.702;44.594;2022-10-20T00:26:53;6.57;;;2.22;;
75283;SDS011;63877;48.702;44.594;2022-10-20T00:32:59;3.50;;;2.30;;
75283;SDS011;63877;48.702;44.594;2022-10-20T00:39:07;4.93;;;2.80;;
75283;SDS011;63877;48.702;44.594;2022-10-20T00:42:13;2.08;;;1.55;;
75283;SDS011;63877;48.702;44.594;2022-10-20T00:45:17;3.97;;;1.58;;
75283;SDS011;63877;48.702;44.594;2022-10-20T00:48:04;2.00;;;1.27;;
75283;SDS011;63877;48.702;44.594;2022-10-20T00:50:55;2.42;;;1.77;;
75283;SDS011;63877;48.702;44.594;2022-10-20T00:53:23;3.20;;;2.17;;
75283;SDS011;63877;48.702;44.594;2022-10-20T00:55:53;4.60;;;2.25;;
75283;SDS011;63877;48.702;44.594;2022-10-20T00:58:21;2.38;;;1.92;;
75283;SDS011;63877;48.702;44.594;2022-10-20T01:00:47;4.07;;;2.55;;
75283;SDS011;63877;48.702;44.594;2022-10-20T01:03:47;8.00;;;2.80;;
75283;SDS011;63877;48.702;44.594;2022-10-20T01:06:33;4.50;;;2.78;;
75283;SDS011;63877;48.702;44.594;2022-10-20T01:09:18;3.55;;;2.25;;
75283;SDS011;63877;48.702;44.594;2022-10-20T01:12:10;5.00;;;2.53;;
75283;SDS011;63877;48.702;44.594;2022-10-20T01:20:02;3.58;;;1.92;;
75283;SDS011;63877;48.702;44.594;2022-10-20T01:28:56;2.55;;;2.17;;
75283;SDS011;63877;48.702;44.594;2022-10-20T01:31:34;4.07;;;1.77;;
75283;SDS011;63877;48.702;44.594;2022-10-20T01:36:53;2.92;;;2.10;;
75283;SDS011;63877;48.702;44.594;2022-10-20T01:39:51;2.65;;;2.40;;
75283;SDS011;63877;48.702;44.594;2022-10-20T01:42:40;3.78;;;2.22;;
75283;SDS011;63877;48.702;44.594;2022-10-20T01:45:29;2.30;;;1.63;;
75283;SDS011;63877;48.702;44.594;2022-10-20T01:48:17;6.63;;;3.55;;
75283;SDS011;63877;48.702;44.594;2022-10-20T01:50:47;5.45;;;2.42;;
75283;SDS011;63877;48.702;44.594;2022-10-20T01:53:14;1.55;;;1.45;;
75283;SDS011;63877;48.702;44.594;2022-10-20T01:55:40;4.10;;;2.47;;
75283;SDS011;63877;48.702;44.594;2022-10-20T01:58:34;2.15;;;1.52;;
75283;SDS011;63877;48.702;44.594;2022-10-20T02:07:46;2.95;;;1.65;;
75283;SDS011;63877;48.702;44.594;2022-10-20T02:10:22;10.70;;;2.30;;
75283;SDS011;63877;48.702;44.594;2022-10-20T02:12:55;8.32;;;5.03;;
75283;SDS011;63877;48.702;44.594;2022-10-20T02:15:45;3.05;;;2.67;;
75283;SDS011;63877;48.702;44.594;2022-10-20T02:18:33;4.85;;;2.63;;
75283;SDS011;63877;48.702;44.594;2022-10-20T02:21:23;3.97;;;1.48;;
75283;SDS011;63877;48.702;44.594;2022-10-20T02:23:50;6.80;;;3.15;;
75283;SDS011;63877;48.702;44.594;2022-10-20T02:26:18;3.22;;;1.40;;
75283;SDS011;63877;48.702;44.594;2022-10-20T02:29:09;16.52;;;4.80;;
75283;SDS011;63877;48.702;44.594;2022-10-20T02:31:41;4.70;;;2.45;;
75283;SDS011;63877;48.702;44.594;2022-10-20T02:34:27;3.38;;;2.63;;
75283;SDS011;63877;48.702;44.594;2022-10-20T02:36:54;9.13;;;2.85;;
75283;SDS011;63877;48.702;44.594;2022-10-20T02:39:22;2.58;;;2.38;;
75283;SDS011;63877;48.702;44.594;2022-10-20T02:42:07;2.28;;;1.40;;
75283;SDS011;63877;48.702;44.594;2022-10-20T02:48:32;3.22;;;1.67;;
75283;SDS011;63877;48.702;44.594;2022-10-20T02:51:17;6.20;;;2.60;;
75283;SDS011;63877;48.702;44.594;2022-10-20T02:54:01;7.90;;;4.10;;
75283;SDS011;63877;48.702;44.594;2022-10-20T03:02:34;2.78;;;1.40;;
75283;SDS011;63877;48.702;44.594;2022-10-20T03:08:40;2.97;;;1.30;;
75283;SDS011;63877;48.702;44.594;2022-10-20T03:11:25;6.75;;;2.33;;
75283;SDS011;63877;48.702;44.594;2022-10-20T03:23:01;3.95;;;3.10;;
75283;SDS011;63877;48.702;44.594;2022-10-20T03:26:05;8.80;;;3.75;;
75283;SDS011;63877;48.702;44.594;2022-10-20T03:38:17;5.47;;;2.10;;
75283;SDS011;63877;48.702;44.594;2022-10-20T03:41:02;6.50;;;3.28;;
75283;SDS011;63877;48.702;44.594;2022-10-20T03:44:04;3.92;;;3.38;;
75283;SDS011;63877;48.702;44.594;2022-10-20T03:46:30;3.15;;;1.95;;
75283;SDS011;63877;48.702;44.594;2022-10-20T03:49:15;5.50;;;1.75;;
75283;SDS011;63877;48.702;44.594;2022-10-20T03:51:41;2.72;;;2.03;;
75283;SDS011;63877;48.702;44.594;2022-10-20T03:54:07;3.85;;;2.95;;
75283;SDS011;63877;48.702;44.594;2022-10-20T03:56:51;4.57;;;3.58;;
75283;SDS011;63877;48.702;44.594;2022-10-20T03:59:17;3.60;;;3.13;;
75283;SDS011;63877;48.702;44.594;2022-10-20T04:01:43;3.33;;;2.40;;
75283;SDS011;63877;48.702;44.594;2022-10-20T04:04:29;6.22;;;3.75;;
75283;SDS011;63877;48.702;44.594;2022-10-20T04:07:13;7.75;;;2.13;;
75283;SDS011;63877;48.702;44.594;2022-10-20T04:09:58;2.22;;;1.85;;
75283;SDS011;63877;48.702;44.594;2022-10-20T04:12:45;2.40;;;2.20;;
75283;SDS011;63877;48.702;44.594;2022-10-20T04:15:11;3.78;;;2.35;;
75283;SDS011;63877;48.702;44.594;2022-10-20T04:17:37;5.53;;;2.20;;
75283;SDS011;63877;48.702;44.594;2022-10-20T04:20:03;2.65;;;2.20;;
75283;SDS011;63877;48.702;44.594;2022-10-20T04:22:49;2.53;;;2.05;;
75283;SDS011;63877;48.702;44.594;2022-10-20T04:25:34;3.88;;;0.95;;
75283;SDS011;63877;48.702;44.594;2022-10-20T04:28:21;3.67;;;2.88;;
75283;SDS011;63877;48.702;44.594;2022-10-20T04:30:47;5.22;;;3.40;;
75283;SDS011;63877;48.702;44.594;2022-10-20T04:33:13;10.50;;;1.85;;
75283;SDS011;63877;48.702;44.594;2022-10-20T04:35:39;2.20;;;1.27;;
75283;SDS011;63877;48.702;44.594;2022-10-20T04:38:24;4.18;;;2.72;;
75283;SDS011;63877;48.702;44.594;2022-10-20T04:40:56;7.38;;;3.35;;
75283;SDS011;63877;48.702;44.594;2022-10-20T04:43:24;5.65;;;3.40;;
75283;SDS011;63877;48.702;44.594;2022-10-20T04:46:09;4.82;;;2.72;;
75283;SDS011;63877;48.702;44.594;2022-10-20T04:48:35;3.92;;;2.88;;
75283;SDS011;63877;48.702;44.594;2022-10-20T04:51:20;5.70;;;2.53;;
75283;SDS011;63877;48.702;44.594;2022-10-20T04:54:05;10.45;;;2.65;;
75283;SDS011;63877;48.702;44.594;2022-10-20T04:56:31;3.42;;;2.70;;
75283;SDS011;63877;48.702;44.594;2022-10-20T04:59:15;7.60;;;2.55;;
75283;SDS011;63877;48.702;44.594;2022-10-20T05:02:00;5.28;;;2.67;;
75283;SDS011;63877;48.702;44.594;2022-10-20T05:04:45;3.78;;;2.53;;
75283;SDS011;63877;48.702;44.594;2022-10-20T05:07:29;4.72;;;2.55;;
75283;SDS011;63877;48.702;44.594;2022-10-20T05:10:14;4.57;;;3.92;;
75283;SDS011;63877;48.702;44.594;2022-10-20T05:12:40;5.47;;;3.25;;
75283;SDS011;63877;48.702;44.594;2022-10-20T05:15:24;4.03;;;2.88;;
75283;SDS011;63877;48.702;44.594;2022-10-20T05:17:50;2.83;;;2.50;;
75283;SDS011;63877;48.702;44.594;2022-10-20T05:20:37;3.55;;;2.08;;
75283;SDS011;63877;48.702;44.594;2022-10-20T05:23:22;3.78;;;2.90;;
75283;SDS011;63877;48.702;44.594;2022-10-20T05:25:48;11.75;;;4.22;;
75283;SDS011;63877;48.702;44.594;2022-10-20T05:28:32;4.72;;;3.58;;
75283;SDS011;63877;48.702;44.594;2022-10-20T05:31:02;4.57;;;3.35;;
75283;SDS011;63877;48.702;44.594;2022-10-20T05:33:29;10.23;;;5.95;;
75283;SDS011;63877;48.702;44.594;2022-10-20T05:35:55;6.18;;;4.70;;
75283;SDS011;63877;48.702;44.594;2022-10-20T05:38:21;5.78;;;3.95;;
75283;SDS011;63877;48.702;44.594;2022-10-20T05:40:47;7.43;;;5.47;;
75283;SDS011;63877;48.702;44.594;2022-10-20T05:43:13;9.48;;;4.90;;
75283;SDS011;63877;48.702;44.594;2022-10-20T06:01:34;11.02;;;5.07;;
75283;SDS011;63877;48.702;44.594;2022-10-20T06:04:20;9.10;;;5.43;;
75283;SDS011;63877;48.702;44.594;2022-10-20T06:12:54;7.97;;;4.95;;
75283;SDS011;63877;48.702;44.594;2022-10-20T06:34:23;11.68;;;5.30;;
75283;SDS011;63877;48.702;44.594;2022-10-20T06:40:11;5.90;;;4.20;;
75283;SDS011;63877;48.702;44.594;2022-10-20T06:46:43;7.88;;;4.50;;
75283;SDS011;63877;48.702;44.594;2022-10-20T06:52:51;11.88;;;6.07;;
75283;SDS011;63877;48.702;44.594;2022-10-20T06:55:59;15.48;;;6.63;;
75283;SDS011;63877;48.702;44.594;2022-10-20T07:04:33;7.43;;;4.50;;
75283;SDS011;63877;48.702;44.594;2022-10-20T07:07:18;10.32;;;5.22;;
75283;SDS011;63877;48.702;44.594;2022-10-20T07:12:47;5.18;;;3.90;;
75283;SDS011;63877;48.702;44.594;2022-10-20T07:15:32;9.55;;;5.15;;
75283;SDS011;63877;48.702;44.594;2022-10-20T07:17:57;10.93;;;6.07;;
75283;SDS011;63877;48.702;44.594;2022-10-20T07:20:42;9.90;;;4.97;;
75283;SDS011;63877;48.702;44.594;2022-10-20T07:26:13;4.68;;;2.50;;
75283;SDS011;63877;48.702;44.594;2022-10-20T07:29:16;5.28;;;2.90;;
75283;SDS011;63877;48.702;44.594;2022-10-20T07:34:47;8.00;;;5.03;;
75283;SDS011;63877;48.702;44.594;2022-10-20T07:37:13;8.40;;;4.97;;
75283;SDS011;63877;48.702;44.594;2022-10-20T07:43:01;8.82;;;6.25;;
75283;SDS011;63877;48.702;44.594;2022-10-20T07:45:27;6.15;;;3.92;;
75283;SDS011;63877;48.702;44.594;2022-10-20T07:47:53;13.73;;;5.75;;
75283;SDS011;63877;48.702;44.594;2022-10-20T07:50:19;10.25;;;6.00;;
75283;SDS011;63877;48.702;44.594;2022-10-20T07:52:48;13.80;;;5.10;;
75283;SDS011;63877;48.702;44.594;2022-10-20T07:55:34;7.97;;;4.60;;
75283;SDS011;63877;48.702;44.594;2022-10-20T07:58:19;11.40;;;5.53;;
75283;SDS011;63877;48.702;44.594;2022-10-20T08:00:45;11.10;;;5.80;;
75283;SDS011;63877;48.702;44.594;2022-10-20T08:03:29;9.18;;;5.50;;
75283;SDS011;63877;48.702;44.594;2022-10-20T08:06:13;6.47;;;4.45;;
75283;SDS011;63877;48.702;44.594;2022-10-20T08:08:39;10.85;;;5.82;;
75283;SDS011;63877;48.702;44.594;2022-10-20T08:11:24;13.05;;;6.05;;
75283;SDS011;63877;48.702;44.594;2022-10-20T08:14:09;11.45;;;4.75;;
75283;SDS011;63877;48.702;44.594;2022-10-20T08:16:35;8.23;;;4.18;;
75283;SDS011;63877;48.702;44.594;2022-10-20T08:19:01;10.88;;;5.18;;
75283;SDS011;63877;48.702;44.594;2022-10-20T08:21:27;5.82;;;3.33;;
75283;SDS011;63877;48.702;44.594;2022-10-20T08:24:11;9.82;;;4.20;;
75283;SDS011;63877;48.702;44.594;2022-10-20T08:26:56;11.57;;;5.57;;
75283;SDS011;63877;48.702;44.594;2022-10-20T08:29:40;8.60;;;4.45;;
75283;SDS011;63877;48.702;44.594;2022-10-20T08:32:25;11.68;;;4.70;;
75283;SDS011;63877;48.702;44.594;2022-10-20T08:34:51;10.85;;;5.72;;
75283;SDS011;63877;48.702;44.594;2022-10-20T08:37:16;7.43;;;3.72;;
75283;SDS011;63877;48.702;44.594;2022-10-20T08:39:42;10.57;;;5.90;;
75283;SDS011;63877;48.702;44.594;2022-10-20T08:42:27;7.65;;;4.40;;
75283;SDS011;63877;48.702;44.594;2022-10-20T08:48:02;8.73;;;6.55;;
75283;SDS011;63877;48.702;44.594;2022-10-20T08:50:28;8.45;;;6.25;;
75283;SDS011;63877;48.702;44.594;2022-10-20T08:53:32;13.95;;;7.22;;
75283;SDS011;63877;48.702;44.594;2022-10-20T08:56:04;6.53;;;5.75;;
75283;SDS011;63877;48.702;44.594;2022-10-20T08:58:30;13.75;;;6.05;;
75283;SDS011;63877;48.702;44.594;2022-10-20T09:14:06;12.27;;;6.88;;
75283;SDS011;63877;48.702;44.594;2022-10-20T09:16:52;9.02;;;5.38;;
75283;SDS011;63877;48.702;44.594;2022-10-20T09:19:36;7.22;;;5.32;;
75283;SDS011;63877;48.702;44.594;2022-10-20T09:22:21;11.07;;;6.30;;
75283;SDS011;63877;48.702;44.594;2022-10-20T09:49:06;16.77;;;8.80;;
75283;SDS011;63877;48.702;44.594;2022-10-20T09:55:04;13.88;;;7.82;;
75283;SDS011;63877;48.702;44.594;2022-10-20T09:57:50;25.63;;;11.68;;
75283;SDS011;63877;48.702;44.594;2022-10-20T10:06:53;17.83;;;8.43;;
75283;SDS011;63877;48.702;44.594;2022-10-20T10:18:21;20.02;;;9.13;;
75283;SDS011;63877;48.702;44.594;2022-10-20T10:21:06;16.27;;;9.48;;
75283;SDS011;63877;48.702;44.594;2022-10-20T10:27:23;14.73;;;8.38;;
75283;SDS011;63877;48.702;44.594;2022-10-20T10:30:28;16.23;;;7.20;;
75283;SDS011;63877;48.702;44.594;2022-10-20T10:33:31;17.02;;;9.40;;
75283;SDS011;63877;48.702;44.594;2022-10-20T10:39:10;7.55;;;4.55;;
75283;SDS011;63877;48.702;44.594;2022-10-20T10:51:19;10.98;;;4.40;;
75283;SDS011;63877;48.702;44.594;2022-10-20T10:57:01;10.00;;;4.68;;
75283;SDS011;63877;48.702;44.594;2022-10-20T10:59:50;10.30;;;5.75;;
75283;SDS011;63877;48.702;44.594;2022-10-20T11:05:25;10.93;;;5.90;;
75283;SDS011;63877;48.702;44.594;2022-10-20T11:09:08;9.82;;;4.10;;
75283;SDS011;63877;48.702;44.594;2022-10-20T11:27:28;19.10;;;7.18;;
75283;SDS011;63877;48.702;44.594;2022-10-20T11:30:18;9.35;;;4.47;;
75283;SDS011;63877;48.702;44.594;2022-10-20T11:33:09;10.45;;;4.43;;
75283;SDS011;63877;48.702;44.594;2022-10-20T11:44:05;10.57;;;5.07;;
75283;SDS011;63877;48.702;44.594;2022-10-20T11:50:20;11.88;;;4.68;;
75283;SDS011;63877;48.702;44.594;2022-10-20T11:53:18;16.77;;;7.10;;
75283;SDS011;63877;48.702;44.594;2022-10-20T11:59:45;14.63;;;5.35;;
75283;SDS011;63877;48.702;44.594;2022-10-20T12:06:09;13.07;;;6.82;;
75283;SDS011;63877;48.702;44.594;2022-10-20T12:12:30;9.77;;;5.45;;
75283;SDS011;63877;48.702;44.594;2022-10-20T12:15:22;7.38;;;4.07;;
75283;SDS011;63877;48.702;44.594;2022-10-20T12:18:14;16.92;;;9.82;;
75283;SDS011;63877;48.702;44.594;2022-10-20T12:36:28;8.57;;;4.78;;
75283;SDS011;63877;48.702;44.594;2022-10-20T12:39:17;10.52;;;4.22;;
75283;SDS011;63877;48.702;44.594;2022-10-20T12:42:31;6.90;;;5.00;;
75283;SDS011;63877;48.702;44.594;2022-10-20T12:45:35;13.27;;;6.10;;
75283;SDS011;63877;48.702;44.594;2022-10-20T12:48:19;18.20;;;8.98;;
75283;SDS011;63877;48.702;44.594;2022-10-20T12:51:07;8.73;;;4.43;;
75283;SDS011;63877;48.702;44.594;2022-10-20T12:54:22;18.02;;;10.13;;
75283;SDS011;63877;48.702;44.594;2022-10-20T12:57:31;10.60;;;5.85;;
75283;SDS011;63877;48.702;44.594;2022-10-20T13:00:06;12.88;;;6.05;;
75283;SDS011;63877;48.702;44.594;2022-10-20T13:09:21;11.02;;;4.63;;
75283;SDS011;63877;48.702;44.594;2022-10-20T13:12:21;14.23;;;8.15;;
75283;SDS011;63877;48.702;44.594;2022-10-20T13:15:09;24.75;;;8.00;;
75283;SDS011;63877;48.702;44.594;2022-10-20T13:17:49;10.82;;;5.45;;
75283;SDS011;63877;48.702;44.594;2022-10-20T13:20:45;12.35;;;6.90;;
75283;SDS011;63877;48.702;44.594;2022-10-20T13:26:25;8.45;;;4.65;;
75283;SDS011;63877;48.702;44.594;2022-10-20T13:29:12;18.25;;;7.00;;
75283;SDS011;63877;48.702;44.594;2022-10-20T13:31:50;13.68;;;7.22;;
75283;SDS011;63877;48.702;44.594;2022-10-20T13:35:08;14.40;;;6.75;;
75283;SDS011;63877;48.702;44.594;2022-10-20T13:40:19;13.00;;;8.75;;
75283;SDS011;63877;48.702;44.594;2022-10-20T13:59:03;9.63;;;7.22;;
75283;SDS011;63877;48.702;44.594;2022-10-20T14:14:17;7.28;;;4.40;;
75283;SDS011;63877;48.702;44.594;2022-10-20T14:20:25;13.15;;;7.13;;
75283;SDS011;63877;48.702;44.594;2022-10-20T14:26:19;16.52;;;9.07;;
75283;SDS011;63877;48.702;44.594;2022-10-20T14:29:05;13.05;;;7.47;;
75283;SDS011;63877;48.702;44.594;2022-10-20T14:34:56;12.18;;;7.45;;
75283;SDS011;63877;48.702;44.594;2022-10-20T14:40:51;13.38;;;7.95;;
75283;SDS011;63877;48.702;44.594;2022-10-20T14:43:39;13.95;;;7.35;;
75283;SDS011;63877;48.702;44.594;2022-10-20T14:46:11;15.30;;;7.13;;
75283;SDS011;63877;48.702;44.594;2022-10-20T14:49:15;14.38;;;7.15;;
75283;SDS011;63877;48.702;44.594;2022-10-20T14:55:01;12.63;;;7.47;;
75283;SDS011;63877;48.702;44.594;2022-10-20T14:57:46;18.38;;;10.07;;
75283;SDS011;63877;48.702;44.594;2022-10-20T15:00:32;24.30;;;9.30;;
75283;SDS011;63877;48.702;44.594;2022-10-20T15:03:17;12.55;;;7.57;;
75283;SDS011;63877;48.702;44.594;2022-10-20T15:06:02;28.77;;;8.82;;
75283;SDS011;63877;48.702;44.594;2022-10-20T15:08:28;11.15;;;7.63;;
75283;SDS011;63877;48.702;44.594;2022-10-20T15:11:20;20.95;;;8.13;;
75283;SDS011;63877;48.702;44.594;2022-10-20T15:13:51;18.17;;;7.57;;
75283;SDS011;63877;48.702;44.594;2022-10-20T15:16:41;9.82;;;6.70;;
75283;SDS011;63877;48.702;44.594;2022-10-20T15:19:34;15.95;;;8.75;;
75283;SDS011;63877;48.702;44.594;2022-10-20T15:22:19;12.25;;;7.88;;
75283;SDS011;63877;48.702;44.594;2022-10-20T15:24:45;23.85;;;13.57;;
75283;SDS011;63877;48.702;44.594;2022-10-20T15:27:32;21.13;;;14.80;;
75283;SDS011;63877;48.702;44.594;2022-10-20T15:29:58;22.42;;;12.55;;
75283;SDS011;63877;48.702;44.594;2022-10-20T15:32:24;24.92;;;14.43;;
75283;SDS011;63877;48.702;44.594;2022-10-20T15:35:12;23.95;;;12.35;;
75283;SDS011;63877;48.702;44.594;2022-10-20T15:38:00;33.30;;;11.95;;
75283;SDS011;63877;48.702;44.594;2022-10-20T15:40:26;17.17;;;10.23;;
75283;SDS011;63877;48.702;44.594;2022-10-20T15:42:52;19.30;;;11.85;;
75283;SDS011;63877;48.702;44.594;2022-10-20T15:45:37;18.13;;;11.50;;
75283;SDS011;63877;48.702;44.594;2022-10-20T15:48:23;19.90;;;9.07;;
75283;SDS011;63877;48.702;44.594;2022-10-20T15:50:51;17.98;;;10.10;;
75283;SDS011;63877;48.702;44.594;2022-10-20T15:53:17;14.40;;;8.15;;
75283;SDS011;63877;48.702;44.594;2022-10-20T15:56:02;14.98;;;10.80;;
75283;SDS011;63877;48.702;44.594;2022-10-20T15:58:46;20.15;;;10.88;;
75283;SDS011;63877;48.702;44.594;2022-10-20T16:01:34;17.98;;;9.65;;
75283;SDS011;63877;48.702;44.594;2022-10-20T16:04:20;13.55;;;8.13;;
75283;SDS011;63877;48.702;44.594;2022-10-20T16:07:09;16.75;;;8.23;;
75283;SDS011;63877;48.702;44.594;2022-10-20T16:09:35;11.40;;;8.15;;
75283;SDS011;63877;48.702;44.594;2022-10-20T16:12:19;18.58;;;9.45;;
75283;SDS011;63877;48.702;44.594;2022-10-20T16:14:45;15.10;;;8.15;;
75283;SDS011;63877;48.702;44.594;2022-10-20T16:17:29;14.18;;;8.90;;
75283;SDS011;63877;48.702;44.594;2022-10-20T16:20:14;21.05;;;9.65;;
75283;SDS011;63877;48.702;44.594;2022-10-20T16:22:40;16.55;;;10.75;;
75283;SDS011;63877;48.702;44.594;2022-10-20T16:25:06;21.70;;;10.75;;
75283;SDS011;63877;48.702;44.594;2022-10-20T16:27:52;15.98;;;9.82;;
75283;SDS011;63877;48.702;44.594;2022-10-20T16:30:18;20.85;;;9.25;;
75283;SDS011;63877;48.702;44.594;2022-10-20T16:33:02;17.23;;;8.60;;
75283;SDS011;63877;48.702;44.594;2022-10-20T16:35:47;18.63;;;8.32;;
75283;SDS011;63877;48.702;44.594;2022-10-20T16:38:13;14.85;;;8.45;;
75283;SDS011;63877;48.702;44.594;2022-10-20T16:40:39;11.95;;;7.78;;
75283;SDS011;63877;48.702;44.594;2022-10-20T16:52:13;18.95;;;9.52;;
75283;SDS011;63877;48.702;44.594;2022-10-20T17:01:41;14.05;;;7.32;;
75283;SDS011;63877;48.702;44.594;2022-10-20T17:07:29;16.17;;;9.48;;
75283;SDS011;63877;48.702;44.594;2022-10-20T17:28:57;9.13;;;6.03;;
75283;SDS011;63877;48.702;44.594;2022-10-20T17:40:51;10.05;;;5.03;;
75283;SDS011;63877;48.702;44.594;2022-10-20T17:46:58;8.02;;;3.63;;
75283;SDS011;63877;48.702;44.594;2022-10-20T17:52:46;4.77;;;3.97;;
75283;SDS011;63877;48.702;44.594;2022-10-20T17:58:57;8.90;;;5.50;;
75283;SDS011;63877;48.702;44.594;2022-10-20T18:05:22;9.70;;;6.65;;
75283;SDS011;63877;48.702;44.594;2022-10-20T18:21:35;6.80;;;3.90;;
75283;SDS011;63877;48.702;44.594;2022-10-20T18:43:00;5.32;;;1.92;;
75283;SDS011;63877;48.702;44.594;2022-10-20T18:45:26;2.50;;;1.63;;
75283;SDS011;63877;48.702;44.594;2022-10-20T18:54:55;2.80;;;1.98;;
75283;SDS011;63877;48.702;44.594;2022-10-20T18:57:39;4.90;;;1.77;;
75283;SDS011;63877;48.702;44.594;2022-10-20T19:03:28;0.57;;;0.47;;
75283;SDS011;63877;48.702;44.594;2022-10-20T19:09:06;1.48;;;0.20;;
75283;SDS011;63877;48.702;44.594;2022-10-20T19:15:12;1.02;;;0.52;;
75283;SDS011;63877;48.702;44.594;2022-10-20T19:17:38;0.90;;;0.73;;
75283;SDS011;63877;48.702;44.594;2022-10-20T19:23:27;0.68;;;0.50;;
75283;SDS011;63877;48.702;44.594;2022-10-20T19:29:36;0.85;;;0.55;;
75283;SDS011;63877;48.702;44.594;2022-10-20T19:35:24;0.70;;;0.70;;
75283;SDS011;63877;48.702;44.594;2022-10-20T19:41:30;1.38;;;1.20;;
75283;SDS011;63877;48.702;44.594;2022-10-20T19:43:57;3.15;;;0.55;;
75283;SDS011;63877;48.702;44.594;2022-10-20T19:46:43;1.63;;;0.63;;
75283;SDS011;63877;48.702;44.594;2022-10-20T19:49:29;0.38;;;0.38;;
75283;SDS011;63877;48.702;44.594;2022-10-20T19:52:14;0.60;;;0.60;;
75283;SDS011;63877;48.702;44.594;2022-10-20T19:54:58;4.95;;;0.63;;
75283;SDS011;63877;48.702;44.594;2022-10-20T19:57:44;0.50;;;0.50;;
75283;SDS011;63877;48.702;44.594;2022-10-20T20:00:10;0.35;;;0.28;;
75283;SDS011;63877;48.702;44.594;2022-10-20T20:02:36;0.73;;;0.60;;
75283;SDS011;63877;48.702;44.594;2022-10-20T20:05:21;0.10;;;0.05;;
75283;SDS011;63877;48.702;44.594;2022-10-20T20:08:05;0.35;;;0.30;;
75283;SDS011;63877;48.702;44.594;2022-10-20T20:10:31;0.40;;;0.40;;
75283;SDS011;63877;48.702;44.594;2022-10-20T20:13:16;0.60;;;0.40;;
75283;SDS011;63877;48.702;44.594;2022-10-20T20:16:04;0.73;;;0.55;;
75283;SDS011;63877;48.702;44.594;2022-10-20T20:18:50;1.38;;;0.65;;
75283;SDS011;63877;48.702;44.594;2022-10-20T20:21:34;0.73;;;0.43;;
75283;SDS011;63877;48.702;44.594;2022-10-20T20:24:18;0.93;;;0.80;;
75283;SDS011;63877;48.702;44.594;2022-10-20T20:26:44;0.70;;;0.70;;
75283;SDS011;63877;48.702;44.594;2022-10-20T20:29:29;0.65;;;0.65;;
75283;SDS011;63877;48.702;44.594;2022-10-20T20:32:14;1.50;;;1.40;;
75283;SDS011;63877;48.702;44.594;2022-10-20T20:34:42;1.65;;;0.82;;
75283;SDS011;63877;48.702;44.594;2022-10-20T20:37:08;1.38;;;0.73;;
75283;SDS011;63877;48.702;44.594;2022-10-20T20:39:34;4.55;;;1.25;;
75283;SDS011;63877;48.702;44.594;2022-10-20T20:42:18;0.47;;;0.47;;
75283;SDS011;63877;48.702;44.594;2022-10-20T20:45:02;0.60;;;0.50;;
75283;SDS011;63877;48.702;44.594;2022-10-20T20:47:29;1.13;;;1.02;;
75283;SDS011;63877;48.702;44.594;2022-10-20T20:49:55;0.75;;;0.75;;
75283;SDS011;63877;48.702;44.594;2022-10-20T20:52:21;1.20;;;1.17;;
75283;SDS011;63877;48.702;44.594;2022-10-20T20:55:06;0.60;;;0.40;;
75283;SDS011;63877;48.702;44.594;2022-10-20T20:57:51;0.80;;;0.35;;
75283;SDS011;63877;48.702;44.594;2022-10-20T21:00:35;2.60;;;1.75;;
75283;SDS011;63877;48.702;44.594;2022-10-20T21:03:01;3.22;;;1.50;;
75283;SDS011;63877;48.702;44.594;2022-10-20T21:05:46;0.55;;;0.55;;
75283;SDS011;63877;48.702;44.594;2022-10-20T21:08:34;2.03;;;1.23;;
75283;SDS011;63877;48.702;44.594;2022-10-20T21:11:20;0.65;;;0.65;;
75283;SDS011;63877;48.702;44.594;2022-10-20T21:13:48;3.35;;;1.20;;
75283;SDS011;63877;48.702;44.594;2022-10-20T21:16:16;3.30;;;2.95;;
75283;SDS011;63877;48.702;44.594;2022-10-20T21:19:07;0.90;;;0.88;;
75283;SDS011;63877;48.702;44.594;2022-10-20T21:21:35;0.70;;;0.60;;
75283;SDS011;63877;48.702;44.594;2022-10-20T21:24:21;0.45;;;0.22;;
75283;SDS011;63877;48.702;44.594;2022-10-20T21:27:07;1.13;;;1.05;;
75283;SDS011;63877;48.702;44.594;2022-10-20T21:29:51;0.43;;;0.43;;
75283;SDS011;63877;48.702;44.594;2022-10-20T21:32:36;2.28;;;1.42;;
75283;SDS011;63877;48.702;44.594;2022-10-20T21:35:20;6.72;;;0.70;;
75283;SDS011;63877;48.702;44.594;2022-10-20T21:37:46;2.30;;;2.08;;
75283;SDS011;63877;48.702;44.594;2022-10-20T21:40:12;1.38;;;0.98;;
75283;SDS011;63877;48.702;44.594;2022-10-20T21:48:07;1.45;;;1.05;;
75283;SDS011;63877;48.702;44.594;2022-10-20T21:50:51;1.77;;;1.23;;
75283;SDS011;63877;48.702;44.594;2022-10-20T21:53:59;1.05;;;0.30;;
75283;SDS011;63877;48.702;44.594;2022-10-20T22:00:05;3.13;;;2.80;;
75283;SDS011;63877;48.702;44.594;2022-10-20T22:09:16;2.55;;;2.30;;
75283;SDS011;63877;48.702;44.594;2022-10-20T22:12:01;1.70;;;1.02;;
75283;SDS011;63877;48.702;44.594;2022-10-20T22:20:52;4.47;;;1.63;;
75283;SDS011;63877;48.702;44.594;2022-10-20T22:50:29;2.05;;;1.48;;
75283;SDS011;63877;48.702;44.594;2022-10-20T22:56:18;1.77;;;1.25;;
75283;SDS011;63877;48.702;44.594;2022-10-20T23:10:41;2.55;;;1.00;;
75283;SDS011;63877;48.702;44.594;2022-10-20T23:13:44;2.70;;;1.73;;
75283;SDS011;63877;48.702;44.594;2022-10-20T23:19:33;5.55;;;2.03;;
75283;SDS011;63877;48.702;44.594;2022-10-20T23:22:17;1.90;;;1.58;;
75283;SDS011;63877;48.702;44.594;2022-10-20T23:25:02;0.75;;;0.43;;
75283;SDS011;63877;48.702;44.594;2022-10-20T23:31:12;1.08;;;1.08;;
75283;SDS011;63877;48.702;44.594;2022-10-20T23:40:41;1.35;;;0.57;;
75283;SDS011;63877;48.702;44.594;2022-10-20T23:43:06;0.57;;;0.35;;
75283;SDS011;63877;48.702;44.594;2022-10-20T23:52:00;1.23;;;0.82;;
75283;SDS011;63877;48.702;44.594;2022-10-20T23:57:11;1.67;;;0.70;;
75283;SDS011;63877;48.702;44.594;2022-10-20T23:59:55;0.20;;;0.20;;
